PTPSA SBZM-SBSR
Flight info
| Callsign | PTPSA |
|---|---|
| Flight time | 1h 10m |
| Altitude | 31000 |
| Route | BIXAN UM654 ESGAS UL201 UPONA |
| Aircraft | E135/L-L/2000 |
Departure
| Time | 2026-05-07 16:08 |
|---|---|
| Airport | Presidente Itamar Franco Airport (SBZM) |
Arrival
| Time | 2026-05-07 17:18 |
|---|---|
| Airport | Prof. Eribelto Manoel Reino State Airport (SBSR) |
| Time | Latitude | Longitude | Altitude | Speed | Heading |
|---|---|---|---|---|---|
| 2026-05-07 15:57 | -21.50905 | -43.16253 | 1355 ft | 0 kts | 234° |
| 2026-05-07 16:00 | -21.50906 | -43.16254 | 1355 ft | 0 kts | 236° |
| 2026-05-07 16:01 | -21.50907 | -43.16257 | 1355 ft | 0 kts | 252° |
| 2026-05-07 16:01 | -21.50908 | -43.16270 | 1355 ft | 2 kts | 271° |
| 2026-05-07 16:01 | -21.50903 | -43.16294 | 1355 ft | 3 kts | 279° |
| 2026-05-07 16:01 | -21.50914 | -43.16326 | 1355 ft | 5 kts | 238° |
| 2026-05-07 16:02 | -21.50942 | -43.16367 | 1355 ft | 8 kts | 234° |
| 2026-05-07 16:02 | -21.50978 | -43.16418 | 1355 ft | 9 kts | 233° |
| 2026-05-07 16:02 | -21.51017 | -43.16474 | 1355 ft | 8 kts | 234° |
| 2026-05-07 16:02 | -21.51052 | -43.16526 | 1355 ft | 8 kts | 234° |
| 2026-05-07 16:03 | -21.51090 | -43.16579 | 1355 ft | 9 kts | 232° |
| 2026-05-07 16:03 | -21.51131 | -43.16639 | 1355 ft | 10 kts | 234° |
| 2026-05-07 16:03 | -21.51175 | -43.16705 | 1355 ft | 11 kts | 234° |
| 2026-05-07 16:03 | -21.51225 | -43.16792 | 1355 ft | 15 kts | 257° |
| 2026-05-07 16:04 | -21.51216 | -43.16909 | 1355 ft | 16 kts | 276° |
| 2026-05-07 16:04 | -21.51201 | -43.17039 | 1355 ft | 18 kts | 277° |
| 2026-05-07 16:04 | -21.51234 | -43.17172 | 1355 ft | 19 kts | 234° |
| 2026-05-07 16:04 | -21.51317 | -43.17292 | 1355 ft | 20 kts | 233° |
| 2026-05-07 16:05 | -21.51405 | -43.17418 | 1355 ft | 21 kts | 233° |
| 2026-05-07 16:05 | -21.51498 | -43.17551 | 1355 ft | 23 kts | 233° |
| 2026-05-07 16:05 | -21.51596 | -43.17692 | 1355 ft | 24 kts | 234° |
| 2026-05-07 16:05 | -21.51698 | -43.17838 | 1355 ft | 24 kts | 233° |
| 2026-05-07 16:06 | -21.51802 | -43.17990 | 1355 ft | 25 kts | 234° |
| 2026-05-07 16:06 | -21.51909 | -43.18140 | 1355 ft | 25 kts | 233° |
| 2026-05-07 16:06 | -21.51981 | -43.18279 | 1355 ft | 12 kts | 259° |
| 2026-05-07 16:06 | -21.52003 | -43.18297 | 1355 ft | 3 kts | 168° |
| 2026-05-07 16:07 | -21.52011 | -43.18281 | 1355 ft | 0 kts | 53° |
| 2026-05-07 16:07 | -21.52011 | -43.18280 | 1355 ft | 0 kts | 48° |
| 2026-05-07 16:07 | -21.51980 | -43.18241 | 1355 ft | 30 kts | 53° |
| 2026-05-07 16:07 | -21.51669 | -43.17795 | 1355 ft | 117 kts | 53° |
| 2026-05-07 16:08 | -21.51046 | -43.16920 | 1621 ft | 168 kts | 51° |
| 2026-05-07 16:08 | -21.50309 | -43.15865 | 2495 ft | 185 kts | 51° |
| 2026-05-07 16:08 | -21.49534 | -43.14839 | 3653 ft | 186 kts | 53° |
| 2026-05-07 16:08 | -21.48741 | -43.13546 | 4132 ft | 226 kts | 68° |
| 2026-05-07 16:09 | -21.48555 | -43.11984 | 5668 ft | 211 kts | 89° |
| 2026-05-07 16:09 | -21.48868 | -43.10375 | 6391 ft | 237 kts | 111° |
| 2026-05-07 16:09 | -21.49833 | -43.08940 | 7470 ft | 246 kts | 140° |
| 2026-05-07 16:09 | -21.51420 | -43.07985 | 7973 ft | 288 kts | 159° |
| 2026-05-07 16:10 | -21.53395 | -43.07458 | 8471 ft | 286 kts | 168° |
| 2026-05-07 16:10 | -21.55298 | -43.07028 | 9007 ft | 280 kts | 178° |
| 2026-05-07 16:10 | -21.57168 | -43.07520 | 9263 ft | 283 kts | 211° |
| 2026-05-07 16:10 | -21.58517 | -43.09031 | 9504 ft | 285 kts | 244° |
| 2026-05-07 16:11 | -21.58917 | -43.11078 | 9813 ft | 283 kts | 270° |
| 2026-05-07 16:11 | -21.58744 | -43.13171 | 10142 ft | 282 kts | 289° |
| 2026-05-07 16:11 | -21.57681 | -43.14946 | 10373 ft | 284 kts | 311° |
| 2026-05-07 16:11 | -21.56338 | -43.16584 | 10799 ft | 302 kts | 311° |
| 2026-05-07 16:12 | -21.54911 | -43.18232 | 11714 ft | 309 kts | 316° |
| 2026-05-07 16:12 | -21.53324 | -43.19839 | 12384 ft | 323 kts | 308° |
| 2026-05-07 16:12 | -21.52107 | -43.21913 | 13245 ft | 330 kts | 301° |
| 2026-05-07 16:12 | -21.50936 | -43.23985 | 14241 ft | 331 kts | 299° |
| 2026-05-07 16:13 | -21.50145 | -43.26293 | 15138 ft | 334 kts | 281° |
| 2026-05-07 16:13 | -21.49824 | -43.28767 | 16007 ft | 338 kts | 275° |
| 2026-05-07 16:13 | -21.49664 | -43.31318 | 16854 ft | 342 kts | 273° |
| 2026-05-07 16:13 | -21.49569 | -43.33862 | 17673 ft | 346 kts | 272° |
| 2026-05-07 16:14 | -21.49496 | -43.36440 | 18529 ft | 347 kts | 271° |
| 2026-05-07 16:14 | -21.49431 | -43.39013 | 19563 ft | 343 kts | 271° |
| 2026-05-07 16:14 | -21.49370 | -43.41568 | 20536 ft | 339 kts | 271° |
| 2026-05-07 16:14 | -21.49311 | -43.44063 | 21394 ft | 337 kts | 271° |
| 2026-05-07 16:15 | -21.49251 | -43.46574 | 22217 ft | 336 kts | 272° |
| 2026-05-07 16:15 | -21.49192 | -43.49066 | 23024 ft | 334 kts | 272° |
| 2026-05-07 16:15 | -21.49133 | -43.51529 | 23804 ft | 332 kts | 272° |
| 2026-05-07 16:15 | -21.49074 | -43.54010 | 24561 ft | 331 kts | 272° |
| 2026-05-07 16:16 | -21.49015 | -43.56442 | 25274 ft | 329 kts | 272° |
| 2026-05-07 16:16 | -21.48956 | -43.58875 | 25966 ft | 328 kts | 272° |
| 2026-05-07 16:16 | -21.48896 | -43.61317 | 26643 ft | 326 kts | 272° |
| 2026-05-07 16:16 | -21.48837 | -43.63730 | 27289 ft | 325 kts | 272° |
| 2026-05-07 16:17 | -21.48777 | -43.66147 | 27916 ft | 323 kts | 272° |
| 2026-05-07 16:17 | -21.48717 | -43.68579 | 28531 ft | 322 kts | 272° |
| 2026-05-07 16:17 | -21.48658 | -43.70949 | 29113 ft | 321 kts | 272° |
| 2026-05-07 16:17 | -21.48597 | -43.73351 | 29684 ft | 319 kts | 272° |
| 2026-05-07 16:18 | -21.48538 | -43.75703 | 30225 ft | 318 kts | 272° |
| 2026-05-07 16:18 | -21.48478 | -43.78064 | 30751 ft | 317 kts | 273° |
| 2026-05-07 16:18 | -21.48415 | -43.80474 | 30977 ft | 325 kts | 273° |
| 2026-05-07 16:19 | -21.48286 | -43.85450 | 31004 ft | 346 kts | 272° |
| 2026-05-07 16:19 | -21.48148 | -43.90776 | 31000 ft | 361 kts | 272° |
| 2026-05-07 16:20 | -21.48002 | -43.96293 | 31003 ft | 380 kts | 272° |
| 2026-05-07 16:20 | -21.47849 | -44.01998 | 30995 ft | 386 kts | 272° |
| 2026-05-07 16:21 | -21.47692 | -44.07798 | 30994 ft | 390 kts | 272° |
| 2026-05-07 16:21 | -21.47530 | -44.13688 | 30994 ft | 394 kts | 272° |
| 2026-05-07 16:22 | -21.47366 | -44.19590 | 30992 ft | 395 kts | 272° |
| 2026-05-07 16:22 | -21.47196 | -44.25539 | 31001 ft | 400 kts | 271° |
| 2026-05-07 16:23 | -21.47027 | -44.31561 | 31002 ft | 405 kts | 271° |
| 2026-05-07 16:23 | -21.46852 | -44.37635 | 31002 ft | 410 kts | 271° |
| 2026-05-07 16:24 | -21.46673 | -44.43757 | 31001 ft | 414 kts | 271° |
| 2026-05-07 16:24 | -21.46489 | -44.49954 | 31001 ft | 417 kts | 271° |
| 2026-05-07 16:25 | -21.46303 | -44.56162 | 31001 ft | 420 kts | 271° |
| 2026-05-07 16:25 | -21.46112 | -44.62471 | 31001 ft | 423 kts | 271° |
| 2026-05-07 16:26 | -21.45918 | -44.68777 | 31001 ft | 426 kts | 272° |
| 2026-05-07 16:26 | -21.45719 | -44.75168 | 31001 ft | 428 kts | 272° |
| 2026-05-07 16:27 | -21.45518 | -44.81555 | 31000 ft | 430 kts | 272° |
| 2026-05-07 16:27 | -21.45312 | -44.88037 | 31000 ft | 432 kts | 272° |
| 2026-05-07 16:28 | -21.45102 | -44.94532 | 31000 ft | 434 kts | 272° |
| 2026-05-07 16:28 | -21.44890 | -45.01029 | 31000 ft | 435 kts | 272° |
| 2026-05-07 16:29 | -21.44675 | -45.07541 | 31000 ft | 437 kts | 272° |
| 2026-05-07 16:29 | -21.44456 | -45.14098 | 31000 ft | 438 kts | 272° |
| 2026-05-07 16:30 | -21.44235 | -45.20632 | 31000 ft | 439 kts | 272° |
| 2026-05-07 16:30 | -21.44009 | -45.27228 | 31000 ft | 440 kts | 272° |
| 2026-05-07 16:31 | -21.43783 | -45.33762 | 31000 ft | 441 kts | 272° |
| 2026-05-07 16:31 | -21.43552 | -45.40362 | 31000 ft | 441 kts | 272° |
| 2026-05-07 16:32 | -21.43319 | -45.46960 | 31000 ft | 442 kts | 272° |
| 2026-05-07 16:32 | -21.43082 | -45.53595 | 31000 ft | 442 kts | 272° |
| 2026-05-07 16:33 | -21.42843 | -45.60206 | 31000 ft | 443 kts | 272° |
| 2026-05-07 16:33 | -21.42602 | -45.66806 | 31000 ft | 443 kts | 272° |
| 2026-05-07 16:34 | -21.42356 | -45.73437 | 31000 ft | 444 kts | 272° |
| 2026-05-07 16:34 | -21.42108 | -45.80093 | 31000 ft | 444 kts | 272° |
| 2026-05-07 16:35 | -21.41858 | -45.86724 | 31000 ft | 444 kts | 272° |
| 2026-05-07 16:35 | -21.41605 | -45.93347 | 31000 ft | 445 kts | 272° |
| 2026-05-07 16:36 | -21.41349 | -45.99995 | 31000 ft | 445 kts | 272° |
| 2026-05-07 16:36 | -21.41090 | -46.06658 | 31000 ft | 445 kts | 272° |
| 2026-05-07 16:37 | -21.40828 | -46.13299 | 31000 ft | 445 kts | 272° |
| 2026-05-07 16:37 | -21.40566 | -46.19910 | 31000 ft | 445 kts | 272° |
| 2026-05-07 16:38 | -21.40298 | -46.26591 | 31000 ft | 446 kts | 272° |
| 2026-05-07 16:38 | -21.40030 | -46.33213 | 31000 ft | 446 kts | 272° |
| 2026-05-07 16:39 | -21.39756 | -46.39908 | 31000 ft | 446 kts | 272° |
| 2026-05-07 16:39 | -21.39483 | -46.46534 | 31000 ft | 446 kts | 272° |
| 2026-05-07 16:40 | -21.39205 | -46.53199 | 31000 ft | 446 kts | 272° |
| 2026-05-07 16:40 | -21.38924 | -46.59861 | 31000 ft | 446 kts | 272° |
| 2026-05-07 16:41 | -21.38640 | -46.66554 | 31000 ft | 446 kts | 272° |
| 2026-05-07 16:41 | -21.38354 | -46.73223 | 31000 ft | 446 kts | 272° |
| 2026-05-07 16:42 | -21.38065 | -46.79893 | 31000 ft | 446 kts | 272° |
| 2026-05-07 16:42 | -21.37774 | -46.86558 | 31000 ft | 447 kts | 272° |
| 2026-05-07 16:43 | -21.37481 | -46.93209 | 31000 ft | 447 kts | 272° |
| 2026-05-07 16:43 | -21.37184 | -46.99882 | 31000 ft | 447 kts | 272° |
| 2026-05-07 16:44 | -21.36886 | -47.06511 | 31000 ft | 447 kts | 272° |
| 2026-05-07 16:44 | -21.36586 | -47.13153 | 31000 ft | 447 kts | 272° |
| 2026-05-07 16:45 | -21.36281 | -47.19840 | 31000 ft | 447 kts | 272° |
| 2026-05-07 16:45 | -21.36827 | -47.26371 | 30997 ft | 445 kts | 247° |
| 2026-05-07 16:46 | -21.39748 | -47.32058 | 31001 ft | 445 kts | 239° |
| 2026-05-07 16:46 | -21.42875 | -47.37758 | 31000 ft | 446 kts | 239° |
| 2026-05-07 16:47 | -21.46036 | -47.43505 | 31000 ft | 446 kts | 239° |
| 2026-05-07 16:47 | -21.49199 | -47.49261 | 31000 ft | 446 kts | 239° |
| 2026-05-07 16:48 | -21.52338 | -47.54980 | 31000 ft | 447 kts | 239° |
| 2026-05-07 16:48 | -21.55494 | -47.60734 | 30997 ft | 442 kts | 239° |
| 2026-05-07 16:49 | -21.58603 | -47.66410 | 30998 ft | 437 kts | 239° |
| 2026-05-07 16:49 | -21.61661 | -47.72001 | 30998 ft | 434 kts | 239° |
| 2026-05-07 16:50 | -21.64709 | -47.77581 | 30998 ft | 430 kts | 239° |
| 2026-05-07 16:50 | -21.67724 | -47.83109 | 30998 ft | 427 kts | 239° |
| 2026-05-07 16:51 | -21.70710 | -47.88588 | 30998 ft | 425 kts | 239° |
| 2026-05-07 16:51 | -21.73701 | -47.94083 | 30999 ft | 423 kts | 239° |
| 2026-05-07 16:52 | -21.76655 | -47.99506 | 30999 ft | 421 kts | 239° |
| 2026-05-07 16:52 | -21.79384 | -48.05080 | 30977 ft | 419 kts | 255° |
| 2026-05-07 16:52 | -21.79575 | -48.08191 | 31003 ft | 416 kts | 277° |
| 2026-05-07 16:53 | -21.78658 | -48.11120 | 31005 ft | 414 kts | 300° |
| 2026-05-07 16:53 | -21.76797 | -48.13419 | 31006 ft | 412 kts | 322° |
| 2026-05-07 16:53 | -21.74301 | -48.14866 | 31028 ft | 410 kts | 336° |
| 2026-05-07 16:53 | -21.71788 | -48.16351 | 30979 ft | 410 kts | 321° |
| 2026-05-07 16:54 | -21.69846 | -48.18579 | 31020 ft | 409 kts | 309° |
| 2026-05-07 16:54 | -21.66441 | -48.23450 | 31000 ft | 409 kts | 306° |
| 2026-05-07 16:55 | -21.63112 | -48.28405 | 31000 ft | 409 kts | 306° |
| 2026-05-07 16:55 | -21.59796 | -48.33350 | 31000 ft | 409 kts | 306° |
| 2026-05-07 16:56 | -21.56478 | -48.38298 | 31000 ft | 409 kts | 306° |
| 2026-05-07 16:56 | -21.51503 | -48.45706 | 31000 ft | 409 kts | 306° |
| 2026-05-07 16:57 | -21.48171 | -48.50663 | 31000 ft | 409 kts | 306° |
| 2026-05-07 16:57 | -21.44852 | -48.55596 | 31000 ft | 409 kts | 306° |
| 2026-05-07 16:58 | -21.41517 | -48.60547 | 31000 ft | 409 kts | 306° |
| 2026-05-07 16:58 | -21.38188 | -48.65486 | 31000 ft | 409 kts | 306° |
| 2026-05-07 16:59 | -21.34854 | -48.70428 | 31000 ft | 409 kts | 306° |
| 2026-05-07 16:59 | -21.31495 | -48.75402 | 31000 ft | 409 kts | 306° |
| 2026-05-07 17:00 | -21.28160 | -48.80336 | 31000 ft | 409 kts | 306° |
| 2026-05-07 17:00 | -21.24837 | -48.85249 | 31000 ft | 409 kts | 306° |
| 2026-05-07 17:01 | -21.21511 | -48.90161 | 31000 ft | 409 kts | 306° |
| 2026-05-07 17:01 | -21.20162 | -48.92833 | 30691 ft | 405 kts | 288° |
| 2026-05-07 17:01 | -21.19390 | -48.95683 | 29995 ft | 394 kts | 288° |
| 2026-05-07 17:02 | -21.18524 | -48.98443 | 29106 ft | 389 kts | 289° |
| 2026-05-07 17:02 | -21.17653 | -49.01112 | 28242 ft | 384 kts | 289° |
| 2026-05-07 17:02 | -21.16766 | -49.03794 | 27361 ft | 379 kts | 289° |
| 2026-05-07 17:02 | -21.15890 | -49.06429 | 26485 ft | 375 kts | 289° |
| 2026-05-07 17:03 | -21.15023 | -49.09033 | 25609 ft | 371 kts | 289° |
| 2026-05-07 17:03 | -21.14172 | -49.11589 | 24740 ft | 367 kts | 289° |
| 2026-05-07 17:03 | -21.13319 | -49.14146 | 23861 ft | 363 kts | 289° |
| 2026-05-07 17:03 | -21.12484 | -49.16650 | 22991 ft | 359 kts | 289° |
| 2026-05-07 17:04 | -21.11655 | -49.19132 | 22121 ft | 356 kts | 289° |
| 2026-05-07 17:04 | -21.10824 | -49.21621 | 21239 ft | 352 kts | 289° |
| 2026-05-07 17:04 | -21.10010 | -49.24059 | 20367 ft | 349 kts | 289° |
| 2026-05-07 17:04 | -21.09204 | -49.26469 | 19497 ft | 346 kts | 289° |
| 2026-05-07 17:05 | -21.08401 | -49.28868 | 18622 ft | 342 kts | 289° |
| 2026-05-07 17:05 | -21.07600 | -49.31263 | 17741 ft | 339 kts | 289° |
| 2026-05-07 17:05 | -21.06815 | -49.33606 | 16871 ft | 336 kts | 289° |
| 2026-05-07 17:05 | -21.06035 | -49.35935 | 15966 ft | 325 kts | 289° |
| 2026-05-07 17:06 | -21.05303 | -49.38117 | 15082 ft | 308 kts | 289° |
| 2026-05-07 17:06 | -21.04598 | -49.40218 | 14192 ft | 295 kts | 289° |
| 2026-05-07 17:06 | -21.03918 | -49.42244 | 13331 ft | 292 kts | 289° |
| 2026-05-07 17:06 | -21.03230 | -49.44296 | 12441 ft | 289 kts | 289° |
| 2026-05-07 17:07 | -21.02590 | -49.46200 | 11521 ft | 263 kts | 289° |
| 2026-05-07 17:07 | -21.02001 | -49.47953 | 10629 ft | 246 kts | 289° |
| 2026-05-07 17:07 | -21.01413 | -49.49704 | 9791 ft | 257 kts | 289° |
| 2026-05-07 17:07 | -21.00801 | -49.51526 | 9377 ft | 259 kts | 290° |
| 2026-05-07 17:08 | -20.99812 | -49.53099 | 9052 ft | 262 kts | 322° |
| 2026-05-07 17:08 | -20.98168 | -49.53909 | 8754 ft | 264 kts | 350° |
| 2026-05-07 17:08 | -20.96359 | -49.53671 | 8443 ft | 266 kts | 25° |
| 2026-05-07 17:08 | -20.94996 | -49.52369 | 8139 ft | 267 kts | 59° |
| 2026-05-07 17:09 | -20.94559 | -49.50474 | 7835 ft | 268 kts | 94° |
| 2026-05-07 17:09 | -20.95193 | -49.48638 | 7547 ft | 268 kts | 128° |
| 2026-05-07 17:09 | -20.96724 | -49.47479 | 7234 ft | 269 kts | 162° |
| 2026-05-07 17:09 | -20.98512 | -49.47010 | 6935 ft | 261 kts | 166° |
| 2026-05-07 17:10 | -21.00246 | -49.46573 | 6596 ft | 251 kts | 166° |
| 2026-05-07 17:10 | -21.01916 | -49.46339 | 6246 ft | 242 kts | 188° |
| 2026-05-07 17:10 | -21.03392 | -49.47150 | 5941 ft | 243 kts | 225° |
| 2026-05-07 17:10 | -21.04341 | -49.48644 | 5645 ft | 249 kts | 249° |
| 2026-05-07 17:11 | -21.04542 | -49.50459 | 5328 ft | 244 kts | 277° |
| 2026-05-07 17:11 | -21.03981 | -49.52117 | 5037 ft | 237 kts | 308° |
| 2026-05-07 17:11 | -21.02896 | -49.53383 | 5000 ft | 226 kts | 317° |
| 2026-05-07 17:11 | -21.01559 | -49.54000 | 4990 ft | 205 kts | 1° |
| 2026-05-07 17:12 | -21.00234 | -49.53758 | 5045 ft | 182 kts | 8° |
| 2026-05-07 17:12 | -20.98989 | -49.53708 | 4802 ft | 178 kts | 357° |
| 2026-05-07 17:12 | -20.97766 | -49.53845 | 4566 ft | 173 kts | 351° |
| 2026-05-07 17:12 | -20.96596 | -49.54082 | 4331 ft | 169 kts | 347° |
| 2026-05-07 17:13 | -20.95479 | -49.54371 | 4100 ft | 166 kts | 345° |
| 2026-05-07 17:13 | -20.94373 | -49.54696 | 3865 ft | 162 kts | 343° |
| 2026-05-07 17:13 | -20.93285 | -49.54973 | 3622 ft | 160 kts | 0° |
| 2026-05-07 17:13 | -20.92303 | -49.54557 | 3397 ft | 154 kts | 45° |
| 2026-05-07 17:14 | -20.91614 | -49.53724 | 3319 ft | 141 kts | 48° |
| 2026-05-07 17:14 | -20.90999 | -49.52963 | 3320 ft | 134 kts | 49° |
| 2026-05-07 17:14 | -20.90397 | -49.52200 | 3300 ft | 135 kts | 50° |
| 2026-05-07 17:14 | -20.89796 | -49.51427 | 3279 ft | 135 kts | 50° |
| 2026-05-07 17:15 | -20.89206 | -49.50658 | 3241 ft | 132 kts | 50° |
| 2026-05-07 17:15 | -20.88629 | -49.49900 | 3211 ft | 131 kts | 51° |
| 2026-05-07 17:15 | -20.88055 | -49.49144 | 3181 ft | 130 kts | 51° |
| 2026-05-07 17:15 | -20.87479 | -49.48380 | 3161 ft | 132 kts | 51° |
| 2026-05-07 17:16 | -20.86893 | -49.47604 | 3081 ft | 136 kts | 51° |
| 2026-05-07 17:16 | -20.86298 | -49.46815 | 2914 ft | 136 kts | 51° |
| 2026-05-07 17:16 | -20.85706 | -49.46031 | 2741 ft | 136 kts | 51° |
| 2026-05-07 17:16 | -20.85105 | -49.45235 | 2567 ft | 136 kts | 51° |
| 2026-05-07 17:17 | -20.84519 | -49.44460 | 2416 ft | 135 kts | 51° |
| 2026-05-07 17:17 | -20.83930 | -49.43680 | 2271 ft | 133 kts | 51° |
| 2026-05-07 17:17 | -20.83353 | -49.42915 | 2137 ft | 131 kts | 51° |
| 2026-05-07 17:17 | -20.82775 | -49.42156 | 2000 ft | 130 kts | 54° |
| 2026-05-07 17:18 | -20.82230 | -49.41388 | 1828 ft | 131 kts | 51° |
| 2026-05-07 17:18 | -20.81669 | -49.40644 | 1758 ft | 102 kts | 52° |
| 2026-05-07 17:18 | -20.81442 | -49.40336 | 1748 ft | 22 kts | 47° |
| 2026-05-07 17:18 | -20.81384 | -49.40313 | 1747 ft | 0 kts | 347° |
| 2026-05-07 17:19 | -20.81379 | -49.40315 | 1747 ft | 1 kts | 347° |
| 2026-05-07 17:19 | -20.81356 | -49.40319 | 1747 ft | 5 kts | 355° |
| 2026-05-07 17:19 | -20.81307 | -49.40316 | 1746 ft | 9 kts | 1° |
| 2026-05-07 17:19 | -20.81250 | -49.40354 | 1743 ft | 4 kts | 321° |
| 2026-05-07 17:20 | -20.81238 | -49.40364 | 1742 ft | 0 kts | 321° |